INFORMAÇÕES METEOROLÓGICAS
METAR FOR OPKC
ADDS - METARS form results

(1453 UTC 20 April 2019)
Data provider http://aviationweather.gov/metar/data/
 
METAR text: OPKC 201425Z 23010KT 6000 NSC 28/20 Q1006 NOSIG
Conditions at: OPKC (KARACHI INTL ARP, PK) observed 1425 UTC 20 April 2019
Temperature: 28.0°C (82°F)
Dewpoint: 20.0°C (68°F) [RH = 62%]
Pressure (altimeter): 29.70 inches Hg (1006.0 mb)
Winds: from the SW (230 degrees) at 12 MPH (10 knots; 5.1 m/s)
Visibility: 4 miles ( 6 km)
Ceiling: at least 12,000 feet AGL
Clouds: sky clear below 12,000 feet AGL
Weather: no significant weather observed at this time

METAR text: OPKC 201355Z 27010KT 8000 NSC 28/20 Q1006 NOSIG
Conditions at: OPKC (KARACHI INTL ARP, PK) observed 1355 UTC 20 April 2019
Temperature: 28.0°C (82°F)
Dewpoint: 20.0°C (68°F) [RH = 62%]
Pressure (altimeter): 29.70 inches Hg (1006.0 mb)
Winds: from the W (270 degrees) at 12 MPH (10 knots; 5.1 m/s)
Visibility: 5 miles ( 8 km)
Ceiling: at least 12,000 feet AGL
Clouds: sky clear below 12,000 feet AGL
Weather: no significant weather observed at this time

Forecast for: OPKC (KARACHI INTL ARP, PK)
Text: TAF OPKC 201230Z 2015/2024 24010G20KT 6000 NSC
Forecast period: 1500 to 1800 UTC 20 April 2019
Forecast type: FROM: standard forecast or significant change
Winds: from the WSW (240 degrees) at 12 MPH (10 knots; 5.1 m/s)
gusting to 23 MPH (20 knots; 10.3 m/s)
Visibility: 4 miles (6 km)
Ceiling: unknown
Clouds: missing
Weather: no significant weather forecast for this period
Text: BECMG 2018/2020 27005G15KT 5000 HZ NSC
Forecast period: 1800 UTC 20 April 2019 to 0000 UTC 21 April 2019
Forecast type: BECOMING: Conditions expected to become as follows by 2000 UTC 20 April 2019
Winds: from the W (270 degrees) at 6 MPH (5 knots; 2.6 m/s)
gusting to 17 MPH (15 knots; 7.7 m/s)
Visibility: 3 miles (5 km)
Ceiling: unknown
Clouds: missing
Weather: HZ  (haze)

 MAPA DO AEROPORTO

 INFORMAÇÕES DA PISTA
Pista 07L Tamanho da pista 10500 ft Largura da pista 151 ft
Elevação da pista 77 ft Ranhura da pista 0 ft Proa da pista 75
Pista 25R Tamanho da pista 10500 ft Largura da pista 151 ft
Elevação da pista 100 ft Ranhura da pista 0 ft Proa da pista 255
Pista 07R Tamanho da pista 11155 ft Largura da pista 151 ft
Elevação da pista 71 ft Ranhura da pista 0 ft Proa da pista 74
Pista 25L Tamanho da pista 11155 ft Largura da pista 151 ft
Elevação da pista 89 ft Ranhura da pista 0 ft Proa da pista 254

 FREQUÊNCIAS DO AEROPORTO
Tipo APP Nome KARACHI AP Frequência 125.5 MHZ
Tipo ATIS Nome ATIS Frequência 126.7 MHZ
Tipo GND Nome KARACHI GN Frequência 121.6 MHZ
Tipo TWR Nome KARACHI TW Frequência 118.3 MHZ

 AUXÍLIOS DE NAVEGAÇÃO PRÓXIMOS AO AEROPORTO
Tipo VOR-DME Nome Karachi Frequência 112100 KHZ
Tipo NDB Nome Karachi Frequência 271 KHZ



Powered by Mercosul Lnhas Aereas